createdAt,value
2023-05-13T00:00:51.715Z,70.50
2023-05-13T00:06:00.241Z,71.20
2023-05-13T00:11:08.860Z,71.30
2023-05-13T00:16:17.999Z,71.20
2023-05-13T00:21:26.686Z,70.50
2023-05-13T00:26:35.675Z,71.50
2023-05-13T00:31:44.181Z,72.00
2023-05-13T00:36:53.062Z,71.00
2023-05-13T00:42:02.153Z,71.10
2023-05-13T00:47:11.164Z,71.10
2023-05-13T00:52:19.755Z,71.20
2023-05-13T00:57:28.673Z,71.10
2023-05-13T01:02:37.485Z,72.40
2023-05-13T01:07:46.552Z,72.90
2023-05-13T01:12:54.979Z,72.30
2023-05-13T01:18:03.520Z,71.60
2023-05-13T01:23:11.892Z,71.60
2023-05-13T01:28:20.340Z,72.40
2023-05-13T01:33:29.070Z,72.20
2023-05-13T01:38:37.971Z,73.20
2023-05-13T01:43:46.783Z,73.10
2023-05-13T01:48:55.744Z,72.10
2023-05-13T01:54:04.172Z,72.10
2023-05-13T01:59:13.002Z,72.00
2023-05-13T02:04:21.455Z,72.10
2023-05-13T02:09:30.591Z,72.80
2023-05-13T02:14:39.548Z,73.40
2023-05-13T02:19:48.670Z,73.00
2023-05-13T02:24:57.516Z,72.70
2023-05-13T02:30:06.527Z,72.50
2023-05-13T02:35:17.894Z,72.10
2023-05-13T02:40:16.435Z,72.40
2023-05-13T02:45:24.883Z,72.60
2023-05-13T02:50:33.934Z,72.80
2023-05-13T02:55:42.939Z,73.20
2023-05-13T03:00:51.741Z,74.30
2023-05-13T03:05:59.997Z,74.60
2023-05-13T03:11:08.692Z,75.20
2023-05-13T03:16:17.413Z,76.10
2023-05-13T03:21:26.822Z,76.00
2023-05-13T03:26:35.098Z,75.90
2023-05-13T03:31:44.022Z,76.90
2023-05-13T03:36:52.290Z,76.20
2023-05-13T03:42:01.472Z,76.20
2023-05-13T03:47:09.892Z,76.40
2023-05-13T03:52:18.921Z,75.50
2023-05-13T03:57:27.041Z,75.20
2023-05-13T04:02:37.439Z,75.40
2023-05-13T04:07:35.835Z,74.70
2023-05-13T04:12:48.174Z,74.00
2023-05-13T04:17:46.324Z,74.90
2023-05-13T04:22:55.766Z,74.80
2023-05-13T04:28:04.250Z,73.50
2023-05-13T04:33:13.284Z,72.10
2023-05-13T04:38:21.591Z,70.50
2023-05-13T04:43:30.633Z,67.10
2023-05-13T04:48:39.579Z,63.90
2023-05-13T04:53:48.294Z,65.60
2023-05-13T04:58:57.210Z,66.00
2023-05-13T05:04:06.740Z,62.80
2023-05-13T05:09:14.941Z,62.80
2023-05-13T05:14:27.024Z,64.60
2023-05-13T05:19:25.875Z,60.90
2023-05-13T05:24:34.510Z,61.50
2023-05-13T05:29:42.998Z,59.00
2023-05-13T05:34:51.553Z,58.50
2023-05-13T05:40:00.163Z,53.40
2023-05-13T05:45:08.982Z,54.70
2023-05-13T05:50:20.829Z,52.70
2023-05-13T05:55:21.471Z,52.40
2023-05-13T06:05:29.343Z,48.40
2023-05-13T06:10:37.906Z,47.00
2023-05-13T06:15:46.954Z,49.70
2023-05-13T06:20:56.634Z,47.90
2023-05-13T06:26:05.684Z,47.50
2023-05-13T06:31:14.457Z,45.80
2023-05-13T06:36:23.725Z,45.80
2023-05-13T06:41:32.559Z,45.80
2023-05-13T06:46:41.665Z,46.00
2023-05-13T06:51:50.422Z,46.10
2023-05-13T06:56:59.198Z,45.70
2023-05-13T07:02:07.683Z,46.40
2023-05-13T07:07:16.860Z,47.70
2023-05-13T07:12:25.566Z,45.30
2023-05-13T07:17:34.657Z,44.50
2023-05-13T07:22:43.265Z,45.20
2023-05-13T07:27:52.374Z,42.60
2023-05-13T07:33:00.869Z,40.90
2023-05-13T07:38:09.760Z,42.00
2023-05-13T07:43:18.403Z,41.50
2023-05-13T07:48:27.377Z,41.20
2023-05-13T07:53:36.391Z,41.70
2023-05-13T07:58:49.205Z,40.00
2023-05-13T08:03:48.010Z,36.30
2023-05-13T08:08:56.460Z,37.40
2023-05-13T08:14:04.766Z,37.10
2023-05-13T08:19:13.545Z,37.50
2023-05-13T08:24:22.039Z,39.70
2023-05-13T08:29:31.294Z,37.40
2023-05-13T08:34:40.352Z,35.70
2023-05-13T08:39:49.669Z,35.00
2023-05-13T08:44:58.505Z,35.30
2023-05-13T08:50:07.656Z,35.80
2023-05-13T08:55:16.203Z,36.10
2023-05-13T09:00:25.016Z,34.40
2023-05-13T09:05:35.675Z,33.80
2023-05-13T09:10:42.354Z,35.20
2023-05-13T09:15:51.302Z,34.10
2023-05-13T09:21:00.509Z,34.90
2023-05-13T09:26:09.355Z,38.00
2023-05-13T09:31:18.366Z,35.40
2023-05-13T09:36:27.283Z,35.30
2023-05-13T09:41:36.194Z,35.20
2023-05-13T09:46:45.044Z,37.00
2023-05-13T09:51:54.292Z,35.40
2023-05-13T09:57:02.998Z,32.70
2023-05-13T10:02:12.596Z,34.90
2023-05-13T10:07:21.396Z,32.60
2023-05-13T10:12:30.401Z,34.40
2023-05-13T10:17:39.316Z,37.00
2023-05-13T10:22:48.671Z,31.60
2023-05-13T10:27:57.476Z,34.20
2023-05-13T10:33:06.690Z,32.00
2023-05-13T10:38:15.304Z,30.30
2023-05-13T10:43:24.471Z,31.20
2023-05-13T10:48:33.104Z,31.90
2023-05-13T10:53:42.215Z,36.10
2023-05-13T10:58:51.016Z,32.10
2023-05-13T11:04:00.298Z,32.30
2023-05-13T11:09:08.807Z,35.20
2023-05-13T11:14:18.340Z,32.90
2023-05-13T11:19:27.167Z,33.70
2023-05-13T11:24:36.468Z,35.40
2023-05-13T11:29:45.094Z,34.80
2023-05-13T11:34:53.739Z,31.10
2023-05-13T11:40:02.266Z,34.10
2023-05-13T11:45:11.620Z,33.80
2023-05-13T11:50:20.724Z,32.50
2023-05-13T11:55:30.079Z,32.00
2023-05-13T12:00:38.706Z,35.00
2023-05-13T12:05:48.317Z,32.60
2023-05-13T12:10:57.018Z,31.80
2023-05-13T12:16:05.880Z,33.10
2023-05-13T12:21:14.389Z,34.80
2023-05-13T12:26:23.628Z,32.60
2023-05-13T12:31:32.218Z,33.20
2023-05-13T12:36:41.221Z,30.80
2023-05-13T12:41:50.280Z,32.00
2023-05-13T12:46:59.863Z,30.30
2023-05-13T12:52:08.316Z,33.10
2023-05-13T12:57:16.869Z,32.20
2023-05-13T13:02:25.572Z,34.50
2023-05-13T13:07:34.623Z,32.50
2023-05-13T13:12:43.301Z,31.10
2023-05-13T13:17:52.083Z,32.30
2023-05-13T13:23:00.951Z,31.10
2023-05-13T13:28:10.356Z,33.80
2023-05-13T13:33:18.881Z,34.30
2023-05-13T13:38:27.704Z,34.30
2023-05-13T13:43:36.191Z,37.30
2023-05-13T13:48:45.419Z,35.10
2023-05-13T13:53:54.250Z,33.20
2023-05-13T13:59:03.211Z,33.80
2023-05-13T14:04:11.428Z,33.90
2023-05-13T14:09:20.404Z,35.00
2023-05-13T14:14:28.834Z,37.50
2023-05-13T14:19:37.822Z,33.20
2023-05-13T14:24:46.235Z,32.30
2023-05-13T14:29:55.298Z,32.80
2023-05-13T14:35:04.245Z,32.70
2023-05-13T14:40:13.762Z,31.50
2023-05-13T14:45:22.153Z,31.60
2023-05-13T14:50:30.945Z,32.30
2023-05-13T14:55:39.264Z,32.90
2023-05-13T15:00:49.472Z,31.50
2023-05-13T15:05:47.844Z,30.60
2023-05-13T15:10:56.439Z,31.20
2023-05-13T15:16:04.827Z,30.00
2023-05-13T15:21:13.363Z,30.00
2023-05-13T15:26:22.067Z,30.50
2023-05-13T15:31:31.341Z,30.00
2023-05-13T15:36:40.718Z,30.40
2023-05-13T15:41:49.535Z,32.00
2023-05-13T15:46:58.347Z,34.10
2023-05-13T15:52:07.370Z,32.00
2023-05-13T15:57:15.710Z,29.80
2023-05-13T16:02:25.340Z,28.10
2023-05-13T16:07:34.277Z,28.40
2023-05-13T16:12:43.102Z,27.90
2023-05-13T16:17:51.947Z,27.70
2023-05-13T16:23:00.910Z,27.70
2023-05-13T16:28:09.137Z,28.10
2023-05-13T16:33:18.990Z,27.90
2023-05-13T16:38:27.815Z,27.20
2023-05-13T16:43:36.935Z,27.70
2023-05-13T16:48:45.717Z,27.90
2023-05-13T16:53:55.171Z,27.30
2023-05-13T16:59:03.707Z,28.20
2023-05-13T17:04:12.685Z,28.60
2023-05-13T17:09:21.157Z,29.70
2023-05-13T17:14:30.845Z,30.00
2023-05-13T17:19:39.536Z,35.60
2023-05-13T17:24:48.659Z,35.90
2023-05-13T17:29:56.872Z,39.40
2023-05-13T17:35:05.697Z,39.80
2023-05-13T17:40:14.438Z,43.50
2023-05-13T17:45:23.932Z,45.20
2023-05-13T17:50:32.521Z,45.90
2023-05-13T17:55:41.365Z,47.40
2023-05-13T18:00:50.849Z,50.50
2023-05-13T18:06:00.060Z,51.80
2023-05-13T18:11:09.215Z,50.90
2023-05-13T18:16:19.436Z,51.80
2023-05-13T18:21:29.304Z,52.50
2023-05-13T18:26:28.440Z,54.30
2023-05-13T18:31:37.824Z,55.00
2023-05-13T18:41:55.464Z,55.40
2023-05-13T18:47:04.318Z,55.70
2023-05-13T18:52:12.857Z,55.70
2023-05-13T18:57:22.104Z,56.00
2023-05-13T19:02:31.879Z,56.00
2023-05-13T19:07:40.439Z,56.40
2023-05-13T19:12:49.626Z,56.60
2023-05-13T19:17:59.059Z,57.40
2023-05-13T19:23:08.153Z,57.70
2023-05-13T19:28:17.783Z,58.80
2023-05-13T19:33:26.204Z,59.20
2023-05-13T19:38:35.125Z,59.90
2023-05-13T19:43:43.980Z,59.70
2023-05-13T19:48:53.086Z,60.20
2023-05-13T19:54:01.872Z,60.50
2023-05-13T19:59:11.142Z,61.70
2023-05-13T20:04:19.974Z,61.40
2023-05-13T20:09:29.137Z,60.40
2023-05-13T20:14:37.413Z,61.80
2023-05-13T20:19:45.925Z,61.60
2023-05-13T20:24:54.751Z,61.50
2023-05-13T20:30:03.728Z,62.40
2023-05-13T20:35:12.338Z,63.30
2023-05-13T20:40:21.438Z,62.60
2023-05-13T20:45:29.617Z,62.30
2023-05-13T20:50:38.343Z,62.10
2023-05-13T20:55:47.300Z,63.30
2023-05-13T21:00:56.294Z,63.50
2023-05-13T21:06:04.718Z,63.70
2023-05-13T21:11:14.179Z,63.90
2023-05-13T21:16:23.235Z,63.70
2023-05-13T21:21:31.854Z,63.60
2023-05-13T21:26:40.788Z,63.90
2023-05-13T21:31:50.039Z,64.00
2023-05-13T21:36:58.491Z,64.80
2023-05-13T21:42:07.374Z,64.20
2023-05-13T21:47:16.026Z,64.20
2023-05-13T21:52:25.214Z,65.00
2023-05-13T21:57:33.790Z,66.00
2023-05-13T22:02:43.197Z,66.50
2023-05-13T22:07:51.562Z,67.90
2023-05-13T22:13:00.443Z,68.20
2023-05-13T22:18:09.752Z,68.30
2023-05-13T22:23:18.364Z,68.00
2023-05-13T22:28:26.409Z,68.10
2023-05-13T22:33:35.001Z,67.90
2023-05-13T22:38:43.385Z,68.20
2023-05-13T22:43:52.173Z,67.80
2023-05-13T22:49:00.683Z,68.10
2023-05-13T22:54:09.740Z,68.30
2023-05-13T22:59:18.316Z,68.20
2023-05-13T23:04:27.239Z,68.30
2023-05-13T23:09:35.932Z,68.70
2023-05-13T23:14:45.431Z,68.00
2023-05-13T23:19:54.040Z,67.80
2023-05-13T23:25:02.475Z,68.30
2023-05-13T23:30:11.131Z,68.50
2023-05-13T23:35:20.395Z,67.90
2023-05-13T23:40:29.105Z,67.90
2023-05-13T23:45:37.936Z,68.20
2023-05-13T23:50:46.822Z,69.40
2023-05-13T23:55:55.952Z,69.40
